Details for Ryanair at EGHH




Go Back


Latest METAR
Local Time

EGHH 232150Z 06005KT 9999 FEW026 00/M03 Q1018

23/02/2018, 23:53:07

Description
Results
Ryanair Logo
Number of Pilots based at EGHH
0 Pilots Based here
Number of Ryanair Flights Departed from EGHH
0 Flights Departed
Number of Ryanair Flights Arrived at EGHH
0 Flights Arrived
Number of Ryanair Schedules Departing from EGHH
18 Schedules
Number of Ryanair Schedules Arriving at EGHH
18 Schedules
Number of Ryanair Schedules Departing from EGHH availible today
7 Schedules Today
Number of Ryanair Schedules Arriving at EGHH availible today
7 Schedules Today
Average Landing Rate at EGHH
-207 fpm
Ryanair Average Landing Rate at EGHH
0 fpm
Total Fuel Purchased at EGHH by Ryanair
0.00 kgs / 0.00 lbs

Pilots Based at EGHH


Pilot ID
Pilot Name
Pilot Rank
No. of Flights
No. of Flying Hours
There are no pilots assigned to this hub!   Will you be the first?
Content